Time;durP1;ratioP1;P1;durP2;ratioP2;P2;SDS_P1;SDS_P2;PMS_P1;PMS_P2;Temp;Humidity;BMP_temperature;BMP_pressure;BME280_temperature;BME280_humidity;BME280_pressure;Samples;Min_cycle;Max_cycle;Signal;HPM_P1;HPM_P2
2022/09/17 00:00:16;;;;;;;2.15;0.82;;;;;;;12.32;62.82;100296.03;4131154;28;20412;-63
2022/09/17 00:02:19;;;;;;;3.40;1.50;;;;;;;12.36;62.53;100296.94;4130116;28;20054;-62
2022/09/17 00:04:22;;;;;;;3.28;0.70;;;;;;;12.44;62.30;100291.75;4129654;28;20042;-62
2022/09/17 00:06:25;;;;;;;2.72;0.63;;;;;;;12.46;62.70;100293.50;4130168;28;20323;-62
2022/09/17 00:08:28;;;;;;;3.67;0.80;;;;;;;12.45;62.68;100289.16;4131159;28;20492;-62
2022/09/17 00:10:32;;;;;;;1.95;0.82;;;;;;;12.51;62.62;100301.34;4132518;28;20070;-62
2022/09/17 00:12:35;;;;;;;1.95;0.80;;;;;;;12.58;62.26;100295.28;4145754;28;20042;-62
2022/09/17 00:14:40;;;;;;;2.70;0.80;;;;;;;12.65;62.50;100290.97;4133672;28;20085;-63
2022/09/17 00:16:45;;;;;;;3.03;0.70;;;;;;;12.70;61.97;100302.28;4134440;28;20085;-62
2022/09/17 00:18:48;;;;;;;1.83;0.93;;;;;;;12.67;62.08;100297.91;4134304;28;20042;-62
2022/09/17 00:20:51;;;;;;;1.00;0.63;;;;;;;12.61;61.46;100302.25;4134244;28;20049;-63
2022/09/17 00:22:54;;;;;;;3.50;0.90;;;;;;;12.56;61.56;100297.88;4134169;28;20381;-62
2022/09/17 00:24:57;;;;;;;2.88;0.82;;;;;;;12.47;61.98;100299.59;4133851;28;20400;-62
2022/09/17 00:27:00;;;;;;;2.67;1.08;;;;;;;12.47;61.68;100297.88;4130768;28;20405;-63
2022/09/17 00:29:03;;;;;;;5.07;0.90;;;;;;;12.40;61.49;100293.50;4148995;28;20042;-63
2022/09/17 00:31:08;;;;;;;3.33;1.05;;;;;;;12.40;61.87;100304.78;4149071;28;20034;-62
2022/09/17 00:33:13;;;;;;;;;;;;;;;12.33;61.75;100296.94;4134186;28;20049;-63
2022/09/17 00:35:16;;;;;;;1.93;0.70;;;;;;;12.34;61.70;100302.16;4132655;28;19968;-63
2022/09/17 00:37:19;;;;;;;4.38;0.80;;;;;;;12.30;61.80;100308.22;4132595;28;20077;-63
2022/09/17 00:39:21;;;;;;;1.83;0.85;;;;;;;12.27;62.26;100297.78;4132511;28;20053;-63
2022/09/17 00:41:26;;;;;;;4.45;0.95;;;;;;;12.28;61.76;100303.84;4133604;28;20038;-63
2022/09/17 00:43:34;;;;;;;3.78;0.90;;;;;;;12.29;62.04;100298.63;4133485;28;20054;-63
2022/09/17 00:45:37;;;;;;;7.03;1.17;;;;;;;12.32;62.19;100308.22;4133936;28;20038;-63
2022/09/17 00:47:45;;;;;;;7.30;0.80;;;;;;;12.42;62.12;100299.56;4133840;28;20042;-63
2022/09/17 00:49:53;;;;;;;2.25;0.88;;;;;;;12.44;61.61;100295.25;4132614;28;20042;-63
2022/09/17 00:52:03;;;;;;;4.35;0.77;;;;;;;12.35;61.94;100306.50;4132489;28;20053;-63
2022/09/17 00:54:08;;;;;;;2.65;0.70;;;;;;;12.33;61.82;100302.16;4132406;28;20068;-63
2022/09/17 00:56:18;;;;;;;2.92;0.80;;;;;;;12.37;61.61;100309.13;4133545;28;20037;-63
2022/09/17 00:58:22;;;;;;;2.42;0.90;;;;;;;12.39;61.79;100312.59;4133775;28;20046;-63
2022/09/17 01:00:26;;;;;;;4.28;1.33;;;;;;;12.42;61.89;100312.59;4133679;28;20050;-63
2022/09/17 01:02:28;;;;;;;2.28;0.80;;;;;;;12.48;62.02;100312.63;4133465;28;20041;-63
2022/09/17 01:04:31;;;;;;;4.68;0.80;;;;;;;12.46;62.15;100316.13;4133177;28;20046;-63
2022/09/17 01:06:43;;;;;;;8.05;1.30;;;;;;;12.49;61.67;100319.59;4133599;28;20121;-63
2022/09/17 01:09:04;;;;;;;3.88;0.90;;;;;;;12.53;62.54;100325.69;4132395;28;20504;-63
2022/09/17 01:11:33;;;;;;;3.70;1.10;;;;;;;12.44;61.91;100321.31;4126885;28;20528;-63
2022/09/17 01:13:49;;;;;;;4.80;1.30;;;;;;;12.36;62.06;100323.88;4148132;28;20096;-63
2022/09/17 01:16:03;;;;;;;2.35;0.93;;;;;;;12.37;61.96;100319.56;4133405;28;20081;-63
2022/09/17 01:18:21;;;;;;;5.20;1.08;;;;;;;12.34;62.33;100322.16;4133395;28;20068;-63
2022/09/17 01:21:12;;;;;;;6.60;1.50;;;;;;;12.12;62.10;100322.03;4132477;28;20484;-63
2022/09/17 01:23:43;;;;;;;6.68;1.10;;;;;;;12.01;62.63;100321.09;4079247;28;20073;-63
2022/09/17 01:25:59;;;;;;;2.70;0.88;;;;;;;11.95;62.23;100321.06;4133178;28;20096;-63
2022/09/17 01:28:28;;;;;;;4.75;1.42;;;;;;;11.86;62.55;100321.84;4131924;28;20053;-63
2022/09/17 01:30:41;;;;;;;2.63;0.93;;;;;;;11.89;62.62;100324.47;4131993;28;20042;-63
2022/09/17 01:32:50;;;;;;;5.38;1.30;;;;;;;11.95;62.89;100328.88;4131880;28;20412;-63
2022/09/17 01:34:58;;;;;;;5.82;1.05;;;;;;;12.05;62.63;100328.06;4132049;28;20047;-63
2022/09/17 01:37:09;;;;;;;4.00;1.83;;;;;;;12.06;63.64;100321.97;4132170;28;20042;-63
2022/09/17 01:39:21;;;;;;;5.95;1.30;;;;;;;12.03;63.80;100329.78;4132934;28;20081;-63
2022/09/17 01:41:33;;;;;;;3.90;0.90;;;;;;;12.08;63.44;100328.09;4131796;28;20439;-63
2022/09/17 01:43:44;;;;;;;7.55;1.40;;;;;;;12.13;64.05;100322.88;4131426;28;20057;-63
2022/09/17 01:45:51;;;;;;;4.85;0.98;;;;;;;12.16;64.15;100330.72;4133023;28;20492;-63
2022/09/17 01:47:57;;;;;;;3.88;1.23;;;;;;;12.13;63.64;100331.56;4131307;28;20042;-63
2022/09/17 01:50:03;;;;;;;4.70;1.00;;;;;;;12.11;64.19;100333.31;4131127;28;20101;-63
2022/09/17 01:52:09;;;;;;;2.85;1.05;;;;;;;12.08;63.94;100328.09;4132830;28;20042;-63
2022/09/17 01:54:17;;;;;;;3.97;0.90;;;;;;;11.99;64.24;100331.50;4131157;28;20038;-63
2022/09/17 01:56:24;;;;;;;3.63;1.02;;;;;;;11.96;64.15;100330.59;4131509;28;20129;-63
2022/09/17 01:58:31;;;;;;;3.67;0.95;;;;;;;11.92;64.73;100331.44;4131865;28;20042;-64
2022/09/17 02:00:35;;;;;;;3.72;1.80;;;;;;;11.93;64.96;100338.34;4132684;28;20096;-63
2022/09/17 02:02:44;;;;;;;7.13;1.55;;;;;;;11.94;64.83;100342.75;4147746;28;20046;-63
2022/09/17 02:04:52;;;;;;;4.45;1.20;;;;;;;11.95;64.68;100328.88;4132219;28;20042;-63
2022/09/17 02:06:59;;;;;;;5.82;1.42;;;;;;;11.93;65.41;100334.06;4132631;28;20034;-63
2022/09/17 02:09:08;;;;;;;3.38;0.90;;;;;;;11.87;64.95;100337.47;4132630;28;20072;-63
2022/09/17 02:11:16;;;;;;;2.45;1.10;;;;;;;11.83;64.47;100333.09;4131420;28;20050;-63
2022/09/17 02:13:26;;;;;;;2.88;1.10;;;;;;;11.80;64.84;100340.91;4129460;28;20489;-63
2022/09/17 02:15:34;;;;;;;6.88;1.20;;;;;;;11.75;64.66;100337.38;4131470;28;20045;-63
2022/09/17 02:17:44;;;;;;;5.65;1.45;;;;;;;11.76;65.73;100341.72;4131145;28;20046;-63
2022/09/17 02:19:47;;;;;;;4.55;1.15;;;;;;;11.76;65.76;100341.72;4132409;28;20542;-65
2022/09/17 02:21:54;;;;;;;2.08;0.93;;;;;;;11.74;65.37;100342.56;4132453;28;20455;-63
2022/09/17 02:24:06;;;;;;;2.33;0.93;;;;;;;11.66;65.60;100348.59;4130809;28;20491;-63
2022/09/17 02:26:15;;;;;;;3.78;1.30;;;;;;;11.61;65.99;100339.88;4130026;28;20047;-63
2022/09/17 02:28:28;;;;;;;4.90;1.23;;;;;;;11.62;65.85;100335.53;4132217;28;20121;-63
2022/09/17 02:30:31;;;;;;;1.35;0.90;;;;;;;11.60;66.14;100339.88;4132215;28;20093;-63
2022/09/17 02:32:34;;;;;;;6.22;1.30;;;;;;;11.66;65.77;100347.72;4131886;28;20034;-62
2022/09/17 02:34:39;;;;;;;2.60;1.00;;;;;;;11.68;65.53;100346.00;4130960;28;20038;-63
2022/09/17 02:36:42;;;;;;;1.58;0.80;;;;;;;11.67;66.24;100336.47;4132105;28;20443;-63
2022/09/17 02:38:46;;;;;;;2.60;1.00;;;;;;;11.68;65.42;100339.06;4147151;28;20038;-63
2022/09/17 02:40:54;;;;;;;3.93;0.97;;;;;;;11.70;65.34;100336.47;4132450;28;20046;-62
2022/09/17 02:43:10;;;;;;;4.25;1.23;;;;;;;11.63;65.46;100335.53;4132121;28;20289;-63
2022/09/17 02:45:25;;;;;;;4.55;1.00;;;;;;;11.64;66.06;100332.09;4130762;28;20057;-63
2022/09/17 02:47:41;;;;;;;4.25;1.30;;;;;;;11.66;65.46;100334.72;4114800;28;20050;-63
2022/09/17 02:50:02;;;;;;;5.13;1.15;;;;;;;11.59;65.27;100330.31;4131674;28;20097;-63
2022/09/17 02:52:16;;;;;;;3.00;1.00;;;;;;;11.51;65.30;100332.84;4114726;28;20049;-63
2022/09/17 02:54:26;;;;;;;5.60;1.10;;;;;;;11.45;65.63;100345.84;4115674;28;20077;-63
2022/09/17 02:56:45;;;;;;;6.93;1.40;;;;;;;11.32;65.60;100339.63;4114591;28;20567;-63
2022/09/17 02:58:53;;;;;;;5.65;1.02;;;;;;;11.21;65.29;100339.50;4115875;28;20094;-63
2022/09/17 03:01:01;;;;;;;4.22;1.25;;;;;;;11.11;66.35;100335.09;4114604;28;20089;-63
2022/09/17 03:03:09;;;;;;;2.85;1.00;;;;;;;11.17;66.46;100336.03;4128692;28;20050;-63
2022/09/17 03:05:15;;;;;;;3.65;1.20;;;;;;;11.22;66.08;100340.41;4131514;28;20488;-63
2022/09/17 03:07:19;;;;;;;5.35;1.27;;;;;;;11.12;65.92;100337.69;4130527;28;20046;-63
2022/09/17 03:09:22;;;;;;;4.78;1.27;;;;;;;11.09;65.78;100345.47;4130580;28;20085;-63
2022/09/17 03:11:25;;;;;;;5.90;1.02;;;;;;;11.13;67.25;100339.44;4131686;28;20400;-62
2022/09/17 03:13:28;;;;;;;2.80;1.20;;;;;;;11.14;66.57;100336.00;4131567;28;20401;-63
2022/09/17 03:15:31;;;;;;;3.03;1.45;;;;;;;11.23;67.26;100335.22;4130761;28;20100;-63
2022/09/17 03:17:34;;;;;;;2.20;0.93;;;;;;;11.27;66.75;100326.59;4131430;28;20026;-63
2022/09/17 03:19:37;;;;;;;4.10;0.98;;;;;;;11.31;66.92;100317.06;4130289;28;20038;-63
2022/09/17 03:21:41;;;;;;;6.15;1.27;;;;;;;11.31;66.05;100317.91;4130421;28;20066;-63
2022/09/17 03:23:44;;;;;;;6.25;1.23;;;;;;;11.25;66.13;100324.81;4130511;28;20534;-63
2022/09/17 03:25:48;;;;;;;3.30;1.10;;;;;;;11.18;66.06;100322.16;4130182;28;20125;-63
2022/09/17 03:27:51;;;;;;;7.93;1.85;;;;;;;11.11;66.03;100330.78;4131728;28;20448;-63
2022/09/17 03:29:54;;;;;;;4.25;0.93;;;;;;;11.23;66.24;100335.22;4130831;28;20046;-63
2022/09/17 03:31:57;;;;;;;6.82;1.42;;;;;;;11.27;65.93;100338.72;4130252;28;20128;-63
2022/09/17 03:33:59;;;;;;;4.53;1.08;;;;;;;11.21;66.03;100341.25;4131136;28;20053;-63
2022/09/17 03:36:02;;;;;;;6.18;1.10;;;;;;;11.16;65.72;100349.03;4130374;28;20065;-63
2022/09/17 03:38:06;;;;;;;2.35;1.20;;;;;;;11.20;65.75;100344.72;4130155;28;20073;-63
2022/09/17 03:40:09;;;;;;;4.63;1.17;;;;;;;11.22;66.04;100346.47;4131518;28;20053;-63
2022/09/17 03:42:12;;;;;;;3.35;1.02;;;;;;;11.22;65.82;100345.63;4113519;28;20417;-63
2022/09/17 03:44:17;;;;;;;3.80;1.08;;;;;;;11.20;66.17;100345.59;4131960;28;20034;-63
2022/09/17 03:46:20;;;;;;;5.25;1.30;;;;;;;11.27;65.76;100346.50;4134766;28;20035;-63
2022/09/17 03:48:23;;;;;;;3.35;1.15;;;;;;;11.30;65.53;100341.34;4133383;28;20141;-62
2022/09/17 03:50:26;;;;;;;2.50;0.90;;;;;;;11.38;65.02;100344.88;4134743;28;20105;-63
2022/09/17 03:52:29;;;;;;;2.35;1.17;;;;;;;11.41;65.42;100339.72;4134681;28;20046;-63
2022/09/17 03:54:33;;;;;;;5.38;1.52;;;;;;;11.33;64.90;100347.47;4134285;28;20042;-63
2022/09/17 03:56:36;;;;;;;1.88;1.02;;;;;;;11.37;64.80;100352.69;4133658;28;20083;-63
2022/09/17 03:58:39;;;;;;;5.00;0.95;;;;;;;11.32;65.70;100350.91;4149470;28;20037;-63
2022/09/17 04:00:41;;;;;;;4.57;1.30;;;;;;;11.38;64.65;100352.69;4134842;28;20507;-63
2022/09/17 04:02:44;;;;;;;3.13;1.23;;;;;;;11.40;65.26;100353.56;4133366;28;20571;-63
2022/09/17 04:04:47;;;;;;;3.85;0.95;;;;;;;11.42;65.23;100358.78;4132874;28;20045;-63
2022/09/17 04:06:50;;;;;;;3.67;1.13;;;;;;;11.34;64.52;100361.34;4134477;28;20034;-63
2022/09/17 04:08:53;;;;;;;3.50;1.17;;;;;;;11.34;65.30;100366.53;4134460;28;20042;-63
2022/09/17 04:10:57;;;;;;;3.42;1.35;;;;;;;11.35;64.44;100365.69;4140399;28;20058;-63
2022/09/17 04:13:00;;;;;;;3.35;1.23;;;;;;;11.33;65.22;100367.38;4134344;28;20138;-63
2022/09/17 04:15:04;;;;;;;4.32;1.13;;;;;;;11.34;64.66;100363.94;4134044;28;20046;-63
2022/09/17 04:17:06;;;;;;;2.10;0.98;;;;;;;11.31;65.40;100362.16;4134284;28;20038;-63
2022/09/17 04:19:09;;;;;;;2.63;0.90;;;;;;;11.34;64.98;100356.13;4133007;28;20104;-63
2022/09/17 04:21:12;;;;;;;5.75;1.27;;;;;;;11.39;65.06;100359.66;4133097;28;20117;-63
2022/09/17 04:23:15;;;;;;;3.50;1.10;;;;;;;11.39;64.60;100351.84;4115630;28;20101;-63
2022/09/17 04:25:18;;;;;;;3.78;1.55;;;;;;;11.40;64.69;100350.97;4132689;28;20074;-63
2022/09/17 04:27:23;;;;;;;4.25;0.90;;;;;;;11.41;64.80;100349.25;4133163;28;20074;-63
2022/09/17 04:29:26;;;;;;;4.65;1.25;;;;;;;11.42;64.77;100350.97;4134133;28;20046;-63
2022/09/17 04:31:29;;;;;;;5.35;1.20;;;;;;;11.48;64.63;100346.72;4132859;28;20046;-63
2022/09/17 04:33:32;;;;;;;4.20;1.40;;;;;;;11.56;65.03;100351.13;4133770;28;20090;-63
2022/09/17 04:35:34;;;;;;;5.75;1.25;;;;;;;11.57;64.13;100355.47;4134046;28;20074;-63
2022/09/17 04:37:37;;;;;;;3.35;1.00;;;;;;;11.62;64.45;100364.19;4132947;28;20030;-63
2022/09/17 04:39:40;;;;;;;3.25;1.35;;;;;;;11.63;64.48;100360.72;4132882;28;20125;-63
2022/09/17 04:41:43;;;;;;;3.70;1.10;;;;;;;11.65;64.70;100359.88;4148795;28;20550;-63
2022/09/17 04:43:47;;;;;;;2.63;1.40;;;;;;;11.65;64.52;100364.19;4132344;28;20039;-63
2022/09/17 04:45:50;;;;;;;6.45;1.35;;;;;;;11.65;64.30;100370.31;4132850;28;20046;-63
2022/09/17 04:47:53;;;;;;;3.95;1.08;;;;;;;11.67;64.57;100365.09;4132643;28;20038;-63
2022/09/17 04:49:56;;;;;;;2.92;1.23;;;;;;;11.68;63.95;100369.44;4133815;28;20038;-63
2022/09/17 04:51:59;;;;;;;5.32;1.67;;;;;;;11.71;64.09;100369.47;4132704;28;20046;-63
2022/09/17 04:54:02;;;;;;;7.75;1.80;;;;;;;11.67;64.11;100370.31;4129285;28;20093;-63
2022/09/17 04:56:05;;;;;;;5.38;1.20;;;;;;;11.65;63.72;100369.41;4127109;28;20042;-63
2022/09/17 04:58:08;;;;;;;6.90;1.58;;;;;;;11.66;64.61;100368.56;4133658;28;20070;-63
2022/09/17 05:00:14;;;;;;;3.55;1.30;;;;;;;11.66;64.29;100369.41;4133632;28;20047;-63
2022/09/17 05:02:16;;;;;;;3.25;0.98;;;;;;;11.62;64.32;100369.38;4133727;28;20566;-63
2022/09/17 05:04:19;;;;;;;8.13;1.23;;;;;;;11.56;64.13;100375.41;4133300;28;20046;-63
2022/09/17 05:06:22;;;;;;;3.83;1.00;;;;;;;11.53;64.38;100380.59;4132390;28;20100;-63
2022/09/17 05:08:25;;;;;;;2.53;1.10;;;;;;;11.48;64.30;100383.16;4131370;28;20113;-62
2022/09/17 05:10:28;;;;;;;5.90;1.40;;;;;;;11.52;64.58;100384.94;4133380;28;20088;-63
2022/09/17 05:12:31;;;;;;;5.07;1.48;;;;;;;11.58;65.23;100380.63;4133555;28;20151;-63
2022/09/17 05:14:36;;;;;;;4.07;1.40;;;;;;;11.66;64.84;100384.19;4133158;28;20058;-63
2022/09/17 05:16:40;;;;;;;7.57;1.33;;;;;;;11.66;64.91;100381.56;4132094;28;20058;-64
2022/09/17 05:18:43;;;;;;;5.13;1.30;;;;;;;11.72;64.83;100386.84;4132176;28;20555;-63
2022/09/17 05:20:46;;;;;;;2.15;0.85;;;;;;;11.81;65.05;100379.13;4133260;28;20411;-63
2022/09/17 05:22:51;;;;;;;6.50;1.38;;;;;;;11.72;64.33;100380.75;4133411;28;20042;-63
2022/09/17 05:24:53;;;;;;;3.97;1.20;;;;;;;11.77;64.10;100382.56;4133222;28;20039;-62
2022/09/17 05:26:56;;;;;;;7.43;1.65;;;;;;;11.66;64.72;100384.19;4132096;28;20038;-63
2022/09/17 05:28:59;;;;;;;3.10;1.15;;;;;;;11.71;64.27;100390.31;4132171;28;20308;-63
2022/09/17 05:31:02;;;;;;;3.90;1.38;;;;;;;11.66;64.48;100397.19;4147308;28;20104;-63
2022/09/17 05:33:07;;;;;;;5.68;1.75;;;;;;;11.69;64.73;100392.88;4131971;28;20073;-63
2022/09/17 05:35:10;;;;;;;4.22;1.38;;;;;;;11.64;64.04;100394.59;4132997;28;20057;-62
2022/09/17 05:37:13;;;;;;;4.57;1.10;;;;;;;11.59;64.25;100391.06;4133126;28;20073;-63
2022/09/17 05:39:16;;;;;;;4.88;1.35;;;;;;;11.63;64.25;100405.84;4133104;28;20484;-62
2022/09/17 05:41:19;;;;;;;4.30;1.25;;;;;;;11.70;64.62;100404.19;4133075;28;20044;-62
2022/09/17 05:43:22;;;;;;;3.30;1.10;;;;;;;11.76;64.29;100399.03;4131593;28;20066;-63
2022/09/17 05:45:25;;;;;;;7.22;1.40;;;;;;;11.69;64.16;100403.28;4131149;28;20034;-62
2022/09/17 05:47:28;;;;;;;5.80;1.80;;;;;;;11.75;64.65;100412.91;4132857;28;20512;-63
2022/09/17 05:49:32;;;;;;;4.60;1.30;;;;;;;11.83;64.47;100411.25;4131027;28;20027;-62
2022/09/17 05:51:35;;;;;;;3.47;1.23;;;;;;;11.84;64.62;100412.09;4130969;28;20049;-62
2022/09/17 05:53:38;;;;;;;5.07;1.33;;;;;;;11.74;63.86;100419.00;4139065;28;20046;-63
2022/09/17 05:55:41;;;;;;;11.30;4.00;;;;;;;11.76;64.12;100426.81;4131694;28;20042;-62
2022/09/17 05:57:43;;;;;;;8.40;2.17;;;;;;;11.82;64.50;100424.25;4132683;28;20456;-63
2022/09/17 05:59:46;;;;;;;3.92;1.20;;;;;;;11.85;64.61;100414.72;4132998;28;20515;-63
2022/09/17 06:01:49;;;;;;;7.80;1.60;;;;;;;11.82;63.72;100419.03;4132756;28;20042;-63
2022/09/17 06:03:52;;;;;;;3.92;1.27;;;;;;;11.80;63.72;100412.97;4131425;28;20043;-62
2022/09/17 06:05:59;;;;;;;3.65;1.33;;;;;;;11.77;64.25;100420.72;4114836;28;20097;-63
2022/09/17 06:08:02;;;;;;;5.32;1.60;;;;;;;11.76;64.41;100414.66;4132024;28;20034;-63
2022/09/17 06:10:08;;;;;;;6.30;1.77;;;;;;;11.68;64.32;100412.00;4130232;28;20038;-63
2022/09/17 06:12:11;;;;;;;6.75;1.27;;;;;;;11.69;64.57;100412.84;4131925;28;20046;-62
2022/09/17 06:14:14;;;;;;;4.18;1.23;;;;;;;11.75;64.61;100409.44;4112514;28;20129;-63
2022/09/17 06:16:17;;;;;;;3.13;0.90;;;;;;;11.71;63.97;100416.38;4128886;28;20497;-63
2022/09/17 06:18:20;;;;;;;6.43;1.48;;;;;;;11.72;64.58;100431.09;4143174;28;22165;-62
2022/09/17 06:20:23;;;;;;;5.20;1.35;;;;;;;11.81;64.19;100432.91;4127250;28;20046;-62
2022/09/17 06:22:27;;;;;;;3.33;1.45;;;;;;;11.85;64.38;100429.47;4125494;28;20533;-63
2022/09/17 06:24:30;;;;;;;4.07;1.38;;;;;;;11.87;64.13;100427.75;4142063;28;20519;-63
2022/09/17 06:26:32;;;;;;;10.25;2.15;;;;;;;11.84;64.17;100433.84;4123010;28;20034;-63
2022/09/17 06:28:36;;;;;;;4.82;1.45;;;;;;;11.81;64.25;100436.41;4125034;28;20042;-63
2022/09/17 06:30:43;;;;;;;7.00;1.73;;;;;;;11.83;63.94;100433.81;4130468;28;20034;-63
2022/09/17 06:32:46;;;;;;;5.22;1.75;;;;;;;11.88;64.43;100435.63;4132136;28;20057;-63
2022/09/17 06:34:49;;;;;;;6.10;1.50;;;;;;;11.91;63.93;100445.16;4127139;28;20035;-63
2022/09/17 06:36:52;;;;;;;6.68;1.50;;;;;;;11.87;64.10;100443.38;4110191;28;20568;-62
2022/09/17 06:38:56;;;;;;;5.70;1.55;;;;;;;11.95;63.63;100451.31;4126575;28;20472;-63
2022/09/17 06:40:59;;;;;;;7.88;2.05;;;;;;;11.97;64.25;100457.41;4123528;28;20066;-63
2022/09/17 06:43:02;;;;;;;7.75;1.55;;;;;;;11.99;64.19;100453.97;4124719;28;20070;-63
2022/09/17 06:45:06;;;;;;;6.00;1.55;;;;;;;12.01;63.66;100452.22;4131303;28;20053;-63
2022/09/17 06:47:14;;;;;;;8.57;1.70;;;;;;;12.07;63.55;100455.75;4120088;28;20034;-63
2022/09/17 06:49:17;;;;;;;7.80;1.30;;;;;;;12.02;63.93;100458.31;4131176;28;20092;-63
2022/09/17 06:51:21;;;;;;;5.70;1.33;;;;;;;12.11;63.78;100463.59;4128955;28;20042;-63
2022/09/17 06:53:24;;;;;;;3.55;1.23;;;;;;;12.20;63.34;100458.44;4131117;28;20038;-63
2022/09/17 06:55:28;;;;;;;7.28;1.63;;;;;;;12.20;63.67;100445.41;4130816;28;20038;-63
2022/09/17 06:57:31;;;;;;;5.40;1.20;;;;;;;12.32;63.13;100448.97;4144222;28;20069;-63
2022/09/17 06:59:34;;;;;;;3.97;1.85;;;;;;;12.37;63.56;100448.16;4130299;28;20097;-63
2022/09/17 07:01:37;;;;;;;4.28;1.65;;;;;;;12.44;63.15;100449.09;4145976;28;20577;-63
2022/09/17 07:03:42;;;;;;;5.47;1.45;;;;;;;12.49;62.98;100449.09;4130327;28;20484;-63
2022/09/17 07:05:45;;;;;;;2.88;1.20;;;;;;;12.54;62.98;100445.66;4130894;28;20521;-63
2022/09/17 07:07:48;;;;;;;13.18;2.47;;;;;;;12.58;62.80;100444.78;4131737;28;20038;-63
2022/09/17 07:09:51;;;;;;;5.20;2.05;;;;;;;12.73;62.08;100443.13;4115795;28;20075;-63
2022/09/17 07:11:56;;;;;;;6.32;1.58;;;;;;;12.61;62.09;100448.31;4130568;28;20093;-63
2022/09/17 07:13:59;;;;;;;7.75;1.65;;;;;;;12.54;61.90;100445.66;4114027;28;20049;-63
2022/09/17 07:16:03;;;;;;;6.80;1.67;;;;;;;12.59;62.56;100445.69;4117943;28;20054;-64
2022/09/17 07:18:10;;;;;;;7.05;1.75;;;;;;;12.66;62.18;100454.41;4127160;28;20038;-63
2022/09/17 07:20:13;;;;;;;6.13;1.55;;;;;;;12.71;62.64;100453.56;4131537;28;20050;-63
2022/09/17 07:22:16;;;;;;;6.75;1.55;;;;;;;12.75;61.97;100451.84;4131452;28;20070;-63
2022/09/17 07:24:18;;;;;;;4.47;1.33;;;;;;;12.72;62.27;100457.91;4131263;28;20038;-63
2022/09/17 07:26:21;;;;;;;6.72;1.60;;;;;;;12.77;62.15;100455.34;4112358;28;20126;-63
2022/09/17 07:28:27;;;;;;;2.90;1.20;;;;;;;12.80;62.36;100449.25;4127946;28;20116;-62
2022/09/17 07:30:30;;;;;;;6.70;1.30;;;;;;;12.74;62.08;100448.34;4131342;28;20042;-60
2022/09/17 07:32:33;;;;;;;7.18;1.90;;;;;;;12.70;62.06;100456.16;4145994;28;20558;-62
2022/09/17 07:34:36;;;;;;;7.38;1.42;;;;;;;12.79;62.35;100461.44;4130862;28;20053;-62
2022/09/17 07:36:39;;;;;;;10.50;2.30;;;;;;;12.81;61.97;100458.84;4128380;28;20113;-64
2022/09/17 07:38:42;;;;;;;6.30;1.63;;;;;;;12.84;61.64;100453.63;4130405;28;20046;-62
2022/09/17 07:40:44;;;;;;;6.30;1.52;;;;;;;12.90;61.51;100454.53;4130198;28;20038;-62
2022/09/17 07:42:47;;;;;;;5.43;1.42;;;;;;;13.08;61.42;100458.97;4116656;28;20038;-60
2022/09/17 07:44:51;;;;;;;7.28;1.50;;;;;;;13.11;61.14;100455.47;4122926;28;20037;-61
2022/09/17 07:46:54;;;;;;;6.75;1.98;;;;;;;13.02;61.15;100464.13;4130328;28;20093;-59
2022/09/17 07:48:57;;;;;;;6.40;1.42;;;;;;;13.06;60.91;100459.81;4130972;28;20038;-61
2022/09/17 07:51:00;;;;;;;7.28;2.08;;;;;;;13.06;60.81;100463.28;4146581;28;20136;-62
2022/09/17 07:53:03;;;;;;;9.10;1.65;;;;;;;13.05;60.91;100463.28;4131415;28;20303;-65
2022/09/17 07:55:06;;;;;;;4.40;1.55;;;;;;;13.00;61.19;100460.66;4129832;28;20129;-63
2022/09/17 07:57:09;;;;;;;8.35;1.58;;;;;;;13.05;61.08;100455.47;4131091;28;20050;-62
2022/09/17 07:59:12;;;;;;;9.15;1.30;;;;;;;13.12;60.97;100464.19;4130845;28;20043;-61
2022/09/17 08:01:19;;;;;;;7.55;1.73;;;;;;;13.30;60.93;100460.75;4130103;28;20062;-62
2022/09/17 08:03:22;;;;;;;5.72;1.55;;;;;;;13.33;61.13;100466.00;4144668;28;20076;-59
2022/09/17 08:05:25;;;;;;;5.53;1.58;;;;;;;13.33;60.39;100468.59;4129925;28;20035;-61
2022/09/17 08:07:28;;;;;;;9.88;2.30;;;;;;;13.30;60.48;100461.63;4130049;28;20038;-63
2022/09/17 08:09:31;;;;;;;6.32;1.58;;;;;;;13.37;60.11;100463.41;4130953;28;20062;-63
2022/09/17 08:11:34;;;;;;;7.78;2.35;;;;;;;13.41;60.12;100459.09;4130234;28;20038;-63
2022/09/17 08:13:57;;;;;;;3.95;1.50;;;;;;;13.42;60.38;100451.25;4116771;28;20505;-60
2022/09/17 08:16:00;;;;;;;12.15;2.00;;;;;;;13.45;60.27;100460.84;4142928;28;20368;-62
2022/09/17 08:18:05;;;;;;;5.40;1.40;;;;;;;13.47;60.43;100463.47;4131073;28;20042;-63
2022/09/17 08:20:08;;;;;;;6.22;1.60;;;;;;;13.49;60.00;100456.50;4130626;28;20034;-63
2022/09/17 08:22:11;;;;;;;8.13;1.73;;;;;;;13.52;59.98;100457.38;4131245;28;20039;-62
2022/09/17 08:24:14;;;;;;;7.57;1.50;;;;;;;13.42;60.09;100456.50;4130519;28;20424;-65
2022/09/17 08:26:19;;;;;;;6.22;1.52;;;;;;;13.53;59.80;100464.34;4130936;28;20052;-62
2022/09/17 08:28:22;;;;;;;7.15;1.58;;;;;;;13.56;59.97;100461.72;4129139;28;20043;-63
2022/09/17 08:30:25;;;;;;;8.52;1.73;;;;;;;13.63;59.49;100462.63;4130604;28;20041;-62
2022/09/17 08:32:29;;;;;;;7.32;1.75;;;;;;;13.65;59.75;100468.72;4133836;28;20031;-60
2022/09/17 08:34:35;;;;;;;4.63;1.60;;;;;;;13.68;59.71;100470.47;4133785;28;20038;-60
2022/09/17 08:36:38;;;;;;;6.13;1.65;;;;;;;13.85;59.55;100455.69;4148926;28;20439;-58
2022/09/17 08:38:41;;;;;;;7.35;1.75;;;;;;;13.85;58.89;100465.28;4131601;28;20512;-60
2022/09/17 08:40:54;;;;;;;7.03;1.65;;;;;;;13.79;58.84;100460.91;4131766;28;20480;-63
2022/09/17 08:43:01;;;;;;;7.68;1.55;;;;;;;13.76;58.78;100464.38;4131050;28;20046;-62
2022/09/17 08:45:10;;;;;;;7.22;1.70;;;;;;;13.72;58.79;100473.06;4133581;28;20515;-61
2022/09/17 08:47:17;;;;;;;5.80;1.60;;;;;;;13.63;58.96;100465.22;4133468;28;20472;-59
2022/09/17 08:49:30;;;;;;;5.18;1.55;;;;;;;13.73;58.86;100471.34;4133317;28;20040;-61
2022/09/17 08:51:42;;;;;;;5.10;1.52;;;;;;;13.77;58.54;100478.34;4131306;28;20121;-62
2022/09/17 08:54:00;;;;;;;5.38;1.42;;;;;;;13.96;57.78;100472.25;4131462;28;20559;-61
2022/09/17 08:56:10;;;;;;;6.18;1.13;;;;;;;14.01;57.96;100466.16;4133168;28;20039;-67
2022/09/17 08:59:02;;;;;;;8.85;1.85;;;;;;;14.08;58.20;100466.13;4130259;28;20038;-63
2022/09/17 09:01:18;;;;;;;4.68;1.27;;;;;;;14.11;58.24;100467.88;4096095;29;20051;-61
2022/09/17 09:03:34;;;;;;;7.57;1.55;;;;;;;14.10;58.16;100468.75;4094924;28;20584;-59
2022/09/17 09:05:44;;;;;;;7.20;1.80;;;;;;;14.04;57.65;100471.38;4109867;28;20057;-63
2022/09/17 09:07:53;;;;;;;10.73;1.92;;;;;;;14.05;58.15;100471.38;4131821;28;20050;-66
2022/09/17 09:10:08;;;;;;;6.88;1.50;;;;;;;14.22;57.24;100468.75;4132870;28;20309;-60
2022/09/17 09:12:16;;;;;;;11.25;1.55;;;;;;;14.22;56.87;100468.75;4132933;28;20096;-64
2022/09/17 09:14:24;;;;;;;6.00;1.55;;;;;;;14.27;57.61;100469.63;4130300;28;20038;-64
2022/09/17 09:16:31;;;;;;;5.82;1.40;;;;;;;14.44;56.64;100468.72;4131899;28;20114;-67
2022/09/17 09:18:38;;;;;;;5.53;1.35;;;;;;;14.67;56.58;100466.09;4132042;28;20500;-64
2022/09/17 09:20:52;;;;;;;6.80;1.42;;;;;;;14.82;55.83;100463.44;4131736;28;20045;-64
2022/09/17 09:23:01;;;;;;;7.57;1.70;;;;;;;14.70;54.62;100466.06;4133003;28;20546;-65
2022/09/17 09:25:19;;;;;;;4.40;1.40;;;;;;;14.73;55.44;100460.81;4132942;28;20042;-61
2022/09/17 09:27:27;;;;;;;8.63;1.60;;;;;;;14.62;55.22;100471.34;4131787;28;20105;-61
2022/09/17 09:29:39;;;;;;;6.18;1.63;;;;;;;14.53;55.26;100465.22;4133115;28;20043;-60
2022/09/17 09:31:58;;;;;;;5.32;1.70;;;;;;;14.51;55.37;100473.06;4132497;28;20495;-60
2022/09/17 09:34:03;;;;;;;6.78;1.27;;;;;;;14.65;54.50;100466.09;4130912;28;20038;-60
2022/09/17 09:36:07;;;;;;;7.70;1.52;;;;;;;14.59;55.14;100473.94;4132814;28;20120;-66
2022/09/17 09:38:21;;;;;;;;;;;;;;;14.69;54.39;100463.47;4131683;28;20046;-62
2022/09/17 09:40:33;;;;;;;8.60;1.73;;;;;;;15.01;52.30;100466.00;4140174;28;19944;-61
2022/09/17 09:42:39;;;;;;;7.30;1.42;;;;;;;15.30;50.92;100459.75;4131722;28;20045;-63
2022/09/17 09:44:42;;;;;;;5.05;1.23;;;;;;;15.25;51.67;100457.16;4132317;28;20046;-63